D/T METAR WX W/DIR W/SPE G/SPE TEMP DEWP
7/06/20 10:50 EGNV 070950Z 35011KT 9999 -RA FEW012 SCT015 BKN022 10/08 Q1008 -RA N (350°) 12.7mph 10°C 8°C
7/06/20 10:20 EGNV 070920Z 34010KT 8000 -RA FEW011 BKN018 10/08 Q1007 -RA NNW (340°) 11.5mph 10°C 8°C
7/06/20 09:50 EGNV 070850Z 34010KT 8000 -RA FEW011 SCT017 BKN022 10/08 Q1007 -RA NNW (340°) 11.5mph 10°C 8°C
7/06/20 09:20 EGNV 070820Z 34011KT 6000 -RA FEW011 BKN017 10/08 Q1007 -RA NNW (340°) 12.7mph 10°C 8°C
7/06/20 08:50 EGNV 070750Z 35012KT 8000 -RA FEW010 BKN013 09/08 Q1006 -RA N (350°) 13.8mph 9°C 8°C
7/06/20 08:20 EGNV 070720Z 36014KT 8000 -RA SCT013 BKN030 10/08 Q1006 -RA N (360°) 16.1mph 10°C 8°C
7/06/20 07:50 EGNV 070650Z 36013KT 9999 -RA SCT010 BKN031 10/09 Q1005 -RA N (360°) 15.0mph 10°C 9°C
6/06/20 17:50 EGNV 061650Z 36017KT 9999 VCSH FEW020 BKN047 11/06 Q0998 VCSH N (360°) 19.6mph 11°C 6°C
6/06/20 17:20 EGNV 061620Z 36016KT 9999 VCSH FEW021 BKN027 11/06 Q0998 VCSH N (360°) 18.4mph 11°C 6°C
6/06/20 16:50 EGNV 061550Z 36018KT 9999 BKN025 12/06 Q0997 N (360°) 20.7mph 12°C 6°C
6/06/20 16:20 EGNV 061520Z 36017KT 9999 BKN027 12/06 Q0997 N (360°) 19.6mph 12°C 6°C
6/06/20 15:50 EGNV 061450Z 36020KT 9999 BKN026 12/06 Q0996 N (360°) 23.0mph 12°C 6°C
6/06/20 15:20 EGNV 061420Z 36020KT 9999 BKN025 12/07 Q0996 N (360°) 23.0mph 12°C 7°C
6/06/20 14:50 EGNV 061350Z 36018KT 9999 SCT020 BKN030 11/07 Q0995 N (360°) 20.7mph 11°C 7°C
6/06/20 14:20 EGNV 061320Z 35023KT 9999 SCT020 BKN028 13/07 Q0994 N (350°) 26.5mph 13°C 7°C
6/06/20 13:50 EGNV 061250Z 36024KT 9000 VCSH SCT020 BKN028 12/07 Q0994 VCSH N (360°) 27.6mph 12°C 7°C
6/06/20 13:20 EGNV 061220Z 35025KT 9000 VCSH FEW018 SCT030 12/07 Q0993 VCSH N (350°) 28.8mph 12°C 7°C
6/06/20 12:50 EGNV 061150Z 35022G33KT 9999 FEW022 SCT030 12/07 Q0992 N (350°) 25.3mph 38.0mph 12°C 7°C
6/06/20 12:20 EGNV 061120Z 35025KT 9999 FEW018 BKN022 12/07 Q0992 N (350°) 28.8mph 12°C 7°C
6/06/20 11:50 EGNV 061050Z 34023KT 9999 FEW018 BKN023 11/07 Q0991 NNW (340°) 26.5mph 11°C 7°C
6/06/20 11:20 EGNV 061020Z 33019G30KT 9999 FEW018 BKN022 11/07 Q0990 NNW (330°) 21.9mph 34.5mph 11°C 7°C
6/06/20 10:50 EGNV 060950Z 33019G30KT 310V010 9999 VCSH FEW018 SCT020 10/07 Q0990 VCSH NNW (330°) 21.9mph 34.5mph 10°C 7°C
6/06/20 10:20 EGNV 060920Z 32018G30KT 9999 9000N VCSH FEW018 SCT020 11/08 Q0989 RESHRA VCSH NW (320°) 20.7mph 34.5mph 11°C 8°C
6/06/20 09:50 EGNV 060850Z 30017KT 9999 4000E SHRA FEW014 BKN020 10/08 Q0989 SHRA WNW (300°) 19.6mph 10°C 8°C
6/06/20 09:20 EGNV 060820Z 30021G33KT 9999 VCSH FEW021 SCT024 BKN028 10/06 Q0989 VCSH WNW (300°) 24.2mph 38.0mph 10°C 6°C
6/06/20 08:50 EGNV 060750Z 29021G31KT 9999 VCSH FEW025 BKN028 10/06 Q0988 VCSH WNW (290°) 24.2mph 35.7mph 10°C 6°C
6/06/20 08:20 EGNV 060720Z 29019G29KT 260V320 9999 VCSH FEW025 SCT033 10/06 Q0988 VCSH WNW (290°) 21.9mph 33.4mph 10°C 6°C
6/06/20 07:50 EGNV 060650Z 29016KT 9999 VCSH FEW023 SCT045 09/06 Q0988 VCSH WNW (290°) 18.4mph 9°C 6°C
5/06/20 17:50 EGNV 051650Z 25009KT 9999 VCSH FEW020 SCT045CB 12/04 Q0991 VCSH WSW (250°) 10.4mph 12°C 4°C
5/06/20 16:50 EGNV 051550Z 28009KT 250V310 9999 VCSH FEW020 SCT045CB 11/04 Q0992 VCSH W (280°) 10.4mph 11°C 4°C
5/06/20 16:20 EGNV 051520Z 30022G34KT 260V320 9999 VCSH FEW020 SCT045CB 11/04 Q0992 VCSH WNW (300°) 25.3mph 39.1mph 11°C 4°C
5/06/20 15:50 EGNV 051450Z 28013KT 260V320 9999 VCSH FEW015 SCT038 13/02 Q0992 VCSH W (280°) 15.0mph 13°C 2°C
5/06/20 15:20 EGNV 051420Z 28010KT 250V320 9999 VCSH FEW015CB SCT035 12/05 Q0993 VCSH W (280°) 11.5mph 12°C 5°C
5/06/20 14:20 EGNV 051320Z 27013KT 240V310 9999 VCSH FEW015 SCT040 11/04 Q0993 VCSH W (270°) 15.0mph 11°C 4°C
5/06/20 13:50 EGNV 051250Z 29017KT 9999 SCT030 09/03 Q0994 WNW (290°) 19.6mph 9°C 3°C
5/06/20 13:20 EGNV 051220Z 31012KT 9999 SCT030 09/04 Q0993 NW (310°) 13.8mph 9°C 4°C
5/06/20 12:50 EGNV 051150Z 28011KT 9999 VCSH SCT030 12/03 Q0993 VCSH W (280°) 12.7mph 12°C 3°C
5/06/20 12:20 EGNV 051120Z 34012KT 300V010 9999 VCSH SCT035 12/03 Q0993 VCSH NNW (340°) 13.8mph 12°C 3°C
5/06/20 11:50 EGNV 051050Z 28010KT 250V330 9999 SCT033 11/04 Q0993 W (280°) 11.5mph 11°C 4°C
5/06/20 11:20 EGNV 051020Z 32014G26KT 9999 VCSH SCT036 09/03 Q0994 VCSH NW (320°) 16.1mph 29.9mph 9°C 3°C
5/06/20 10:20 EGNV 050920Z 32013KT 9999 SCT030 10/03 Q0994 NW (320°) 15.0mph 10°C 3°C
5/06/20 09:50 EGNV 050850Z 32015KT 9999 SCT028 10/03 Q0994 NW (320°) 17.3mph 10°C 3°C
5/06/20 09:20 EGNV 050820Z 31014KT 9999 SCT025 09/04 Q0994 NW (310°) 16.1mph 9°C 4°C
5/06/20 08:50 EGNV 050750Z 32010KT 280V340 9999 SCT024 09/05 Q0994 NW (320°) 11.5mph 9°C 5°C
5/06/20 08:20 EGNV 050720Z 30009KT 9999 SCT023 08/05 Q0994 WNW (300°) 10.4mph 8°C 5°C
5/06/20 07:50 EGNV 050650Z 28007KT 9999 FEW028 SCT038 08/05 Q0995 W (280°) 8.1mph 8°C 5°C
5/06/20 07:20 EGNV 050620Z 30008KT 9999 FEW025 SCT042 07/05 Q0995 WNW (300°) 9.2mph 7°C 5°C
5/06/20 06:50 EGNV 050550Z 30008KT 9999 FEW025 07/05 Q0995 WNW (300°) 9.2mph 7°C 5°C
5/06/20 06:20 EGNV 050520Z 32009KT 9999 FEW026 07/05 Q0995 NW (320°) 10.4mph 7°C 5°C
5/06/20 05:50 EGNV 050450Z 31005KT 9999 FEW020 07/05 Q0995 NW (310°) 5.8mph 7°C 5°C
4/06/20 18:20 EGNV 041720Z 05006KT 9999 -SHRA BKN045 11/07 Q0999 -SHRA NE (50°) 6.9mph 11°C 7°C
4/06/20 17:50 EGNV 041650Z 05008KT 010V080 9999 FEW025 SCT040 12/06 Q0999 NE (50°) 9.2mph 12°C 6°C
4/06/20 17:20 EGNV 041620Z 07008KT 9999 FEW025 SCT040 13/07 Q0999 ENE (70°) 9.2mph 13°C 7°C
4/06/20 16:50 EGNV 041550Z 06007KT 030V100 9999 FEW025 SCT040 12/07 Q1000 ENE (60°) 8.1mph 12°C 7°C
4/06/20 16:20 EGNV 041520Z 06007KT 040V100 9999 FEW020 SCT040 11/07 Q1000 ENE (60°) 8.1mph 11°C 7°C
4/06/20 15:50 EGNV 041450Z 05009KT 9999 FEW020 SCT042 11/08 Q1001 NE (50°) 10.4mph 11°C 8°C
4/06/20 14:50 EGNV 041350Z 05006KT 010V080 6000 -RA FEW022 BKN038 11/07 Q1001 -RA NE (50°) 6.9mph 11°C 7°C
4/06/20 14:20 EGNV 041320Z 04012KT 9000 -SHRA FEW022 SCT035 13/06 Q1001 -SHRA NE (40°) 13.8mph 13°C 6°C
4/06/20 13:50 EGNV 041250Z 26008KT 220V340 9999 FEW025 SCT034 13/06 Q1001 W (260°) 9.2mph 13°C 6°C
4/06/20 13:20 EGNV 041220Z VRB04KT 9999 FEW022 SCT032 13/06 Q1001 N (0°) 4.6mph 13°C 6°C
4/06/20 12:50 EGNV 041150Z 24005KT 190V330 9999 FEW020 SCT032 12/06 Q1002 WSW (240°) 5.8mph 12°C 6°C
4/06/20 12:20 EGNV 041120Z 23005KT 160V290 9999 FEW022 SCT032 13/06 Q1003 SW (230°) 5.8mph 13°C 6°C
4/06/20 11:50 EGNV 041050Z 29004KT 210V360 9999 FEW020 SCT034 12/06 Q1003 WNW (290°) 4.6mph 12°C 6°C
4/06/20 11:20 EGNV 041020Z 32005KT 9999 FEW022 BKN035 10/05 Q1003 NW (320°) 5.8mph 10°C 5°C
4/06/20 10:50 EGNV 040950Z 33005KT 290V010 9999 FEW020 BKN032 11/05 Q1004 NNW (330°) 5.8mph 11°C 5°C
4/06/20 10:20 EGNV 040920Z 31004KT 9999 FEW018 BKN034 10/05 Q1004 NW (310°) 4.6mph 10°C 5°C
4/06/20 09:50 EGNV 040850Z 32006KT 9999 FEW016 BKN038 09/05 Q1004 NW (320°) 6.9mph 9°C 5°C
4/06/20 09:20 EGNV 040820Z 32007KT 9999 FEW016 SCT036 10/05 Q1005 NW (320°) 8.1mph 10°C 5°C
4/06/20 08:50 EGNV 040750Z 31007KT 280V340 9999 FEW014 SCT040 10/05 Q1005 NW (310°) 8.1mph 10°C 5°C
4/06/20 08:20 EGNV 040720Z 30007KT 260V330 9999 FEW020 SCT042 10/05 Q1005 WNW (300°) 8.1mph 10°C 5°C
4/06/20 07:50 EGNV 040650Z 27005KT 9999 FEW018 SCT038 09/06 Q1005 W (270°) 5.8mph 9°C 6°C
4/06/20 06:50 EGNV 040550Z 32006KT 9999 SCT042 08/05 Q1006 NW (320°) 6.9mph 8°C 5°C
3/06/20 17:50 EGNV 031650Z 01014KT 9999 SCT021 BKN039 12/07 Q1012 N (10°) 16.1mph 12°C 7°C
3/06/20 17:20 EGNV 031620Z 36016KT 330V030 9999 SCT033 BKN042 12/06 Q1012 N (360°) 18.4mph 12°C 6°C
3/06/20 16:50 EGNV 031550Z 36014KT 9999 SCT025 BKN042 11/06 Q1012 N (360°) 16.1mph 11°C 6°C
3/06/20 16:20 EGNV 031520Z 01013KT 340V040 9999 SCT020 BKN040 11/06 Q1013 N (10°) 15.0mph 11°C 6°C
3/06/20 15:50 EGNV 031450Z 01015KT 9999 SCT023 BKN032 11/06 Q1013 N (10°) 17.3mph 11°C 6°C
3/06/20 15:20 EGNV 031420Z 36016KT 9999 SCT020 BKN026 11/07 Q1013 N (360°) 18.4mph 11°C 7°C
3/06/20 14:50 EGNV 031350Z 01018KT 9999 SCT018 BKN022 11/07 Q1013 N (10°) 20.7mph 11°C 7°C
3/06/20 14:20 EGNV 031320Z 36018KT 9000 FEW013 BKN018 10/07 Q1013 N (360°) 20.7mph 10°C 7°C
3/06/20 13:50 EGNV 031250Z 36017KT 8000 SCT012 BKN015 10/08 Q1013 N (360°) 19.6mph 10°C 8°C
3/06/20 13:20 EGNV 031220Z 36019KT 8000 SCT012 BKN016 10/08 Q1013 N (360°) 21.9mph 10°C 8°C
3/06/20 12:50 EGNV 031150Z 36017KT 8000 FEW010 BKN017 10/08 Q1013 N (360°) 19.6mph 10°C 8°C
3/06/20 11:50 EGNV 031050Z 36017KT 8000 FEW009 BKN014 10/09 Q1013 N (360°) 19.6mph 10°C 9°C
3/06/20 11:20 EGNV 031020Z 36018KT 5000 BR FEW007 BKN014 10/09 Q1013 BR N (360°) 20.7mph 10°C 9°C
3/06/20 10:50 EGNV 030950Z 01016KT 4500 -RA BR FEW006 BKN012 10/09 Q1013 -RA BR N (10°) 18.4mph 10°C 9°C
3/06/20 10:20 EGNV 030920Z 36016KT 4500 -RA BR FEW007 BKN012 10/10 Q1013 -RA BR N (360°) 18.4mph 10°C 10°C
3/06/20 09:50 EGNV 030850Z 36017KT 6000 -RA FEW008 BKN014 10/09 Q1013 -RA N (360°) 19.6mph 10°C 9°C
3/06/20 09:20 EGNV 030820Z 36017KT 8000 FEW009 BKN014 11/09 Q1013 N (360°) 19.6mph 11°C 9°C
3/06/20 08:50 EGNV 030750Z 36017KT 7000 FEW008 BKN013 10/09 Q1013 N (360°) 19.6mph 10°C 9°C
3/06/20 08:20 EGNV 030720Z 01015KT 6000 FEW008 BKN014 10/09 Q1013 N (10°) 17.3mph 10°C 9°C
3/06/20 07:50 EGNV 030650Z 36015KT 4000 -RA FEW006 BKN012 10/10 Q1013 -RA N (360°) 17.3mph 10°C 10°C
3/06/20 07:20 EGNV 030620Z 36015KT 8000 -RA FEW008 BKN012 11/10 Q1013 -RA N (360°) 17.3mph 11°C 10°C
3/06/20 06:50 EGNV 030550Z 01014KT 9000 -RA FEW005 BKN010 11/10 Q1013 -RA N (10°) 16.1mph 11°C 10°C
2/06/20 19:20 EGNV 021820Z 01008KT CAVOK 17/06 Q1016 N (10°) 9.2mph 17°C 6°C
2/06/20 18:20 EGNV 021720Z 04007KT 9999 FEW030 20/06 Q1016 NE (40°) 8.1mph 20°C 6°C